Time;durP1;ratioP1;P1;durP2;ratioP2;P2;SDS_P1;SDS_P2;PMS_P1;PMS_P2;Temp;Humidity;BMP_temperature;BMP_pressure;BME280_temperature;BME280_humidity;BME280_pressure;Samples;Min_cycle;Max_cycle;Signal;HPM_P1;HPM_P2
2022/09/03 00:02:11;;;;;;;13.60;9.32;;;;;;;;;;5086097;28;20035;-77
2022/09/03 00:04:42;;;;;;;16.08;9.27;;;;;;;;;;5069740;28;20024;-76
2022/09/03 00:07:13;;;;;;;13.18;8.57;;;;;;;;;;5066733;28;20031;-77
2022/09/03 00:09:43;;;;;;;16.33;8.98;;;;;;;;;;5076441;28;20123;-76
2022/09/03 00:12:18;;;;;;;14.30;8.35;;;;;;;;;;5077104;28;20025;-77
2022/09/03 00:14:50;;;;;;;14.63;8.65;;;;;;;;;;5062990;28;20028;-77
2022/09/03 00:17:22;;;;;;;12.93;8.75;;;;;;;;;;5069302;28;20040;-77
2022/09/03 00:19:54;;;;;;;13.43;8.90;;;;;;;;;;5069480;28;20389;-77
2022/09/03 00:22:22;;;;;;;10.02;7.18;;;;;;;;;;5082350;28;20369;-77
2022/09/03 00:24:51;;;;;;;10.65;7.50;;;;;;;;;;5069620;28;20064;-77
2022/09/03 00:27:19;;;;;;;17.40;7.93;;;;;;;;;;5067441;28;20047;-77
2022/09/03 00:29:50;;;;;;;10.60;7.88;;;;;;;;;;5072579;28;20008;-76
2022/09/03 00:32:25;;;;;;;11.27;8.02;;;;;;;;;;5072874;28;20393;-77
2022/09/03 00:34:55;;;;;;;14.48;8.43;;;;;;;;;;5073960;28;20036;-77
2022/09/03 00:37:21;;;;;;;13.98;8.38;;;;;;;;;;5064583;28;20024;-77
2022/09/03 00:39:47;;;;;;;11.85;8.60;;;;;;;;;;5073877;28;20128;-76
2022/09/03 00:42:25;;;;;;;13.75;8.32;;;;;;;;;;5074123;28;20448;-76
2022/09/03 00:44:59;;;;;;;13.68;9.00;;;;;;;;;;5068032;28;20027;-76
2022/09/03 00:47:47;;;;;;;26.27;10.35;;;;;;;;;;5071684;28;20025;-76
2022/09/03 00:50:20;;;;;;;13.05;9.15;;;;;;;;;;5067862;28;20077;-76
2022/09/03 00:52:59;;;;;;;15.68;9.18;;;;;;;;;;5069314;28;20669;-74
2022/09/03 00:55:32;;;;;;;15.85;10.15;;;;;;;;;;5079720;28;20845;-77
2022/09/03 00:58:16;;;;;;;17.42;10.23;;;;;;;;;;5073912;28;20055;-76
2022/09/03 01:00:44;;;;;;;15.43;9.98;;;;;;;;;;5068648;28;20032;-77
2022/09/03 01:03:13;;;;;;;15.25;9.35;;;;;;;;;;5066387;28;20047;-76
2022/09/03 01:05:39;;;;;;;16.17;10.98;;;;;;;;;;5073246;28;20032;-76
2022/09/03 01:08:06;;;;;;;19.23;11.32;;;;;;;;;;5073412;28;20025;-76
2022/09/03 01:10:38;;;;;;;20.83;11.45;;;;;;;;;;5075041;28;20042;-76
2022/09/03 01:13:12;;;;;;;15.95;11.50;;;;;;;;;;5073823;28;20038;-77
2022/09/03 01:15:56;;;;;;;19.42;11.40;;;;;;;;;;5060807;28;20017;-75
2022/09/03 01:18:37;;;;;;;17.20;10.40;;;;;;;;;;5072655;28;20025;-77
2022/09/03 01:21:03;;;;;;;21.90;12.98;;;;;;;;;;5071621;28;20101;-77
2022/09/03 01:23:47;;;;;;;20.42;10.82;;;;;;;;;;5071218;28;20021;-77
2022/09/03 01:26:26;;;;;;;15.83;9.67;;;;;;;;;;5063594;28;20140;-76
2022/09/03 01:28:59;;;;;;;7.70;5.75;;;;;;;;;;5073411;28;20081;-76
2022/09/03 01:31:48;;;;;;;5.53;4.53;;;;;;;;;;5071043;28;20067;-77
2022/09/03 01:34:33;;;;;;;4.18;3.20;;;;;;;;;;5063573;28;20053;-76
2022/09/03 01:37:11;;;;;;;4.65;2.55;;;;;;;;;;5063040;28;20036;-76
2022/09/03 01:40:07;;;;;;;3.13;2.53;;;;;;;;;;5068998;28;20099;-76
2022/09/03 01:42:53;;;;;;;3.40;2.30;;;;;;;;;;5066456;28;20389;-76
2022/09/03 01:45:39;;;;;;;3.05;2.30;;;;;;;;;;5066828;28;20031;-76
2022/09/03 01:48:15;;;;;;;2.80;2.10;;;;;;;;;;5064257;28;20485;-76
2022/09/03 01:50:58;;;;;;;2.15;1.92;;;;;;;;;;5059930;28;20031;-76
2022/09/03 01:53:43;;;;;;;3.22;2.00;;;;;;;;;;5066093;28;20053;-76
2022/09/03 01:56:28;;;;;;;2.05;1.80;;;;;;;;;;5076093;28;20044;-76
2022/09/03 01:59:01;;;;;;;2.00;1.80;;;;;;;;;;5089399;28;20497;-76
2022/09/03 02:01:36;;;;;;;8.43;2.65;;;;;;;;;;5071726;28;20053;-77
2022/09/03 02:04:02;;;;;;;;;;;;;;;;;;5069625;28;20036;-77
2022/09/03 02:06:33;;;;;;;2.38;2.00;;;;;;;;;;5073749;28;19939;-76
2022/09/03 02:08:59;;;;;;;2.63;1.75;;;;;;;;;;5073599;28;20041;-75
2022/09/03 02:11:25;;;;;;;2.38;1.92;;;;;;;;;;5072635;28;20029;-77
2022/09/03 02:13:53;;;;;;;1.80;1.65;;;;;;;;;;5068955;28;20051;-76
2022/09/03 02:16:23;;;;;;;2.58;2.00;;;;;;;;;;5077292;28;20028;-75
2022/09/03 02:18:54;;;;;;;2.13;1.70;;;;;;;;;;5063757;28;20021;-76
2022/09/03 02:21:22;;;;;;;2.00;1.60;;;;;;;;;;5061492;28;20044;-76
2022/09/03 02:23:48;;;;;;;2.97;1.52;;;;;;;;;;5085814;28;20033;-76
2022/09/03 02:26:18;;;;;;;2.10;1.73;;;;;;;;;;5073826;28;20070;-76
2022/09/03 02:28:44;;;;;;;2.67;1.85;;;;;;;;;;5077601;28;20476;-76
2022/09/03 02:31:10;;;;;;;3.53;2.05;;;;;;;;;;5076734;28;20039;-76
2022/09/03 02:33:38;;;;;;;3.45;2.00;;;;;;;;;;5072359;28;20029;-76
2022/09/03 02:36:05;;;;;;;3.40;2.08;;;;;;;;;;5077143;28;20781;-76
2022/09/03 02:38:31;;;;;;;1.90;1.60;;;;;;;;;;5074442;28;20035;-76
2022/09/03 02:40:58;;;;;;;4.07;2.03;;;;;;;;;;5075189;28;20028;-76
2022/09/03 02:43:31;;;;;;;3.55;1.90;;;;;;;;;;5073151;28;20036;-76
2022/09/03 02:46:01;;;;;;;3.40;2.25;;;;;;;;;;5076239;28;20033;-76
2022/09/03 02:48:27;;;;;;;4.95;2.70;;;;;;;;;;5067716;28;20033;-76
2022/09/03 02:50:53;;;;;;;3.08;1.85;;;;;;;;;;5078152;28;20108;-77
2022/09/03 02:53:19;;;;;;;2.35;1.90;;;;;;;;;;5075547;28;20052;-76
2022/09/03 02:55:45;;;;;;;2.78;2.17;;;;;;;;;;5067297;28;20031;-76
2022/09/03 02:58:11;;;;;;;2.22;1.90;;;;;;;;;;5068821;28;20025;-75
2022/09/03 03:00:38;;;;;;;2.22;1.90;;;;;;;;;;5076554;28;20032;-75
2022/09/03 03:03:05;;;;;;;2.58;1.90;;;;;;;;;;5072689;28;20040;-76
2022/09/03 03:05:48;;;;;;;2.65;2.35;;;;;;;;;;5075600;28;20089;-76
2022/09/03 03:08:15;;;;;;;1.90;1.70;;;;;;;;;;5071917;28;20029;-76
2022/09/03 03:10:46;;;;;;;2.88;2.05;;;;;;;;;;5073765;28;20025;-76
2022/09/03 03:13:13;;;;;;;3.05;2.00;;;;;;;;;;5085445;28;20028;-76
2022/09/03 03:15:39;;;;;;;4.00;2.00;;;;;;;;;;5058525;28;20033;-76
2022/09/03 03:18:06;;;;;;;2.97;2.25;;;;;;;;;;5065424;28;20461;-77
2022/09/03 03:20:32;;;;;;;4.55;3.00;;;;;;;;;;5085134;28;20031;-76
2022/09/03 03:23:02;;;;;;;3.10;2.47;;;;;;;;;;5071247;28;20021;-76
2022/09/03 03:25:28;;;;;;;3.35;2.40;;;;;;;;;;5058308;28;20080;-76
2022/09/03 03:27:55;;;;;;;2.55;2.20;;;;;;;;;;5072592;28;20031;-76
2022/09/03 03:30:22;;;;;;;3.13;2.33;;;;;;;;;;5077350;28;20033;-76
2022/09/03 03:32:48;;;;;;;4.35;2.55;;;;;;;;;;5075170;28;20032;-76
2022/09/03 03:35:14;;;;;;;3.83;2.10;;;;;;;;;;5067860;28;20029;-75
2022/09/03 03:37:40;;;;;;;3.55;2.63;;;;;;;;;;5077110;28;20393;-76
2022/09/03 03:40:07;;;;;;;3.53;2.10;;;;;;;;;;5074558;28;20033;-76
2022/09/03 03:42:33;;;;;;;2.80;2.13;;;;;;;;;;5073067;28;20405;-76
2022/09/03 03:45:01;;;;;;;2.22;2.03;;;;;;;;;;5074545;28;20029;-77
2022/09/03 03:47:29;;;;;;;6.10;2.75;;;;;;;;;;5077327;28;20047;-76
2022/09/03 03:49:56;;;;;;;2.80;2.30;;;;;;;;;;5073764;28;20024;-76
2022/09/03 03:52:23;;;;;;;2.88;2.00;;;;;;;;;;5076005;28;20032;-76
2022/09/03 03:54:49;;;;;;;3.22;2.30;;;;;;;;;;5075974;28;20021;-76
2022/09/03 03:57:15;;;;;;;6.53;2.42;;;;;;;;;;5078692;28;20079;-76
2022/09/03 03:59:41;;;;;;;2.67;2.00;;;;;;;;;;5074757;28;20063;-76
2022/09/03 04:02:08;;;;;;;1.80;1.70;;;;;;;;;;5069936;28;20039;-77
2022/09/03 04:04:34;;;;;;;2.38;2.00;;;;;;;;;;5074875;28;20099;-76
2022/09/03 04:07:00;;;;;;;2.50;1.90;;;;;;;;;;5065321;28;20043;-76
2022/09/03 04:09:26;;;;;;;4.43;2.17;;;;;;;;;;5077641;28;20021;-77
2022/09/03 04:11:52;;;;;;;3.35;1.92;;;;;;;;;;5074238;28;20024;-76
2022/09/03 04:14:18;;;;;;;2.40;1.90;;;;;;;;;;5077412;28;20376;-76
2022/09/03 04:16:45;;;;;;;3.50;2.17;;;;;;;;;;5066058;28;20124;-77
2022/09/03 04:19:12;;;;;;;4.07;1.92;;;;;;;;;;5072844;28;20020;-76
2022/09/03 04:21:38;;;;;;;1.80;1.70;;;;;;;;;;5071201;28;20560;-76
2022/09/03 04:24:05;;;;;;;2.65;1.75;;;;;;;;;;5076254;28;20174;-76
2022/09/03 04:26:32;;;;;;;2.70;1.80;;;;;;;;;;5073758;28;20039;-77
2022/09/03 04:29:00;;;;;;;1.92;1.70;;;;;;;;;;5076910;28;20029;-78
2022/09/03 04:31:26;;;;;;;1.77;1.52;;;;;;;;;;5072647;28;20029;-76
2022/09/03 04:33:53;;;;;;;2.20;2.00;;;;;;;;;;5075297;28;20504;-76
2022/09/03 04:36:22;;;;;;;2.65;1.92;;;;;;;;;;5071972;28;20024;-76
2022/09/03 04:38:49;;;;;;;2.00;1.80;;;;;;;;;;5069042;28;20025;-76
2022/09/03 04:41:16;;;;;;;2.10;1.60;;;;;;;;;;5072434;28;20028;-76
2022/09/03 04:43:43;;;;;;;1.90;1.70;;;;;;;;;;5070127;28;20244;-75
2022/09/03 04:46:10;;;;;;;1.70;1.50;;;;;;;;;;5083096;28;20048;-76
2022/09/03 04:48:36;;;;;;;2.47;1.80;;;;;;;;;;5073650;28;20374;-76
2022/09/03 04:51:13;;;;;;;2.33;1.80;;;;;;;;;;5072574;28;20086;-76
2022/09/03 04:53:44;;;;;;;1.90;1.70;;;;;;;;;;5070726;28;20044;-76
2022/09/03 04:56:24;;;;;;;2.28;1.75;;;;;;;;;;5067808;28;20028;-76
2022/09/03 04:58:54;;;;;;;1.83;1.65;;;;;;;;;;5074380;28;20031;-76
2022/09/03 05:01:21;;;;;;;2.10;1.90;;;;;;;;;;5073170;28;20048;-75
2022/09/03 05:03:47;;;;;;;2.28;1.90;;;;;;;;;;5073764;28;20063;-76
2022/09/03 05:06:16;;;;;;;4.95;1.90;;;;;;;;;;5076212;28;20114;-76
2022/09/03 05:08:43;;;;;;;2.50;1.98;;;;;;;;;;5073444;28;20023;-78
2022/09/03 05:11:09;;;;;;;1.98;1.77;;;;;;;;;;5072676;28;20528;-76
2022/09/03 05:13:35;;;;;;;3.78;1.85;;;;;;;;;;5089421;28;20378;-76
2022/09/03 05:16:06;;;;;;;1.60;1.50;;;;;;;;;;5066133;28;20036;-76
2022/09/03 05:18:34;;;;;;;2.33;1.70;;;;;;;;;;5077262;28;20028;-76
2022/09/03 05:21:09;;;;;;;1.70;1.60;;;;;;;;;;5068277;28;20147;-77
2022/09/03 05:23:36;;;;;;;2.92;2.00;;;;;;;;;;5070652;28;20052;-77
2022/09/03 05:26:07;;;;;;;2.80;2.30;;;;;;;;;;5069938;28;20047;-77
2022/09/03 05:28:35;;;;;;;3.15;1.80;;;;;;;;;;5070692;28;20052;-76
2022/09/03 05:31:09;;;;;;;2.85;1.92;;;;;;;;;;5062396;28;20021;-76
2022/09/03 05:33:36;;;;;;;2.70;2.00;;;;;;;;;;5071289;28;20687;-78
2022/09/03 05:36:07;;;;;;;2.30;2.10;;;;;;;;;;5072142;28;20035;-76
2022/09/03 05:38:33;;;;;;;2.38;1.85;;;;;;;;;;5072099;28;20028;-76
2022/09/03 05:40:59;;;;;;;3.13;2.00;;;;;;;;;;5072594;28;20039;-76
2022/09/03 05:43:26;;;;;;;3.17;1.90;;;;;;;;;;5071785;28;20025;-77
2022/09/03 05:45:57;;;;;;;2.33;1.65;;;;;;;;;;5071124;28;20032;-76
2022/09/03 05:48:23;;;;;;;2.63;2.00;;;;;;;;;;5068792;28;20032;-76
2022/09/03 05:50:49;;;;;;;2.67;2.13;;;;;;;;;;5075420;28;20052;-76
2022/09/03 05:53:16;;;;;;;3.22;2.00;;;;;;;;;;5068858;28;20045;-75
2022/09/03 05:55:42;;;;;;;2.13;1.90;;;;;;;;;;5083408;28;20025;-76
2022/09/03 05:58:09;;;;;;;2.38;2.00;;;;;;;;;;5067317;28;20994;-76
2022/09/03 06:00:36;;;;;;;3.28;1.70;;;;;;;;;;5072446;28;20452;-76
2022/09/03 06:03:02;;;;;;;3.28;2.03;;;;;;;;;;5074038;28;20021;-77
2022/09/03 06:05:28;;;;;;;2.67;2.03;;;;;;;;;;5078728;28;20033;-76
2022/09/03 06:07:54;;;;;;;2.40;1.92;;;;;;;;;;5077445;28;20086;-77
2022/09/03 06:10:20;;;;;;;3.90;2.58;;;;;;;;;;5076525;28;20686;-77
2022/09/03 06:12:50;;;;;;;2.80;2.10;;;;;;;;;;5075255;28;20113;-76
2022/09/03 06:15:16;;;;;;;2.42;2.13;;;;;;;;;;5075142;28;20054;-76
2022/09/03 06:17:43;;;;;;;3.25;2.40;;;;;;;;;;5072739;28;20123;-77
2022/09/03 06:20:09;;;;;;;2.65;2.03;;;;;;;;;;5070108;28;20028;-76
2022/09/03 06:22:35;;;;;;;3.13;2.22;;;;;;;;;;5072354;28;20694;-77
2022/09/03 06:25:01;;;;;;;2.35;2.13;;;;;;;;;;5070153;28;20035;-77
2022/09/03 06:27:28;;;;;;;5.45;2.15;;;;;;;;;;5076959;28;20028;-76
2022/09/03 06:29:56;;;;;;;2.72;2.00;;;;;;;;;;5076366;28;20606;-77
2022/09/03 06:32:22;;;;;;;2.15;1.95;;;;;;;;;;5077248;28;20087;-78
2022/09/03 06:34:48;;;;;;;2.65;2.08;;;;;;;;;;5075149;28;20136;-78
2022/09/03 06:37:14;;;;;;;2.97;2.00;;;;;;;;;;5070878;28;20043;-78
2022/09/03 06:39:40;;;;;;;2.10;1.75;;;;;;;;;;5076421;28;20115;-78
2022/09/03 06:42:07;;;;;;;2.50;2.00;;;;;;;;;;5076795;28;20123;-78
2022/09/03 06:44:33;;;;;;;2.28;1.65;;;;;;;;;;5077171;28;20032;-78
2022/09/03 06:47:00;;;;;;;2.10;1.83;;;;;;;;;;5066646;28;20066;-77
2022/09/03 06:49:26;;;;;;;2.83;2.10;;;;;;;;;;5078270;28;20060;-78
2022/09/03 06:51:52;;;;;;;3.78;2.22;;;;;;;;;;5072750;28;20432;-78
2022/09/03 06:54:18;;;;;;;3.60;2.60;;;;;;;;;;5082528;28;20075;-78
2022/09/03 06:56:44;;;;;;;2.00;1.80;;;;;;;;;;5089461;28;20052;-78
2022/09/03 06:59:12;;;;;;;1.98;1.83;;;;;;;;;;5076747;28;20108;-78
2022/09/03 07:01:39;;;;;;;3.28;1.98;;;;;;;;;;5070751;28;20044;-78
2022/09/03 07:04:06;;;;;;;4.40;2.25;;;;;;;;;;5075771;28;20056;-78
2022/09/03 07:06:37;;;;;;;2.90;2.13;;;;;;;;;;5066192;28;20036;-78
2022/09/03 07:09:03;;;;;;;3.00;2.20;;;;;;;;;;5069608;28;20028;-77
2022/09/03 07:11:32;;;;;;;3.40;2.00;;;;;;;;;;5075779;28;20039;-78
2022/09/03 07:13:59;;;;;;;2.55;2.22;;;;;;;;;;5073497;28;20058;-77
2022/09/03 07:16:26;;;;;;;3.13;2.00;;;;;;;;;;5072604;28;20358;-77
2022/09/03 07:18:53;;;;;;;2.85;2.00;;;;;;;;;;5076118;28;20016;-78
2022/09/03 07:21:20;;;;;;;3.92;2.65;;;;;;;;;;5071173;28;20036;-77
2022/09/03 07:23:47;;;;;;;3.00;2.38;;;;;;;;;;5074291;28;20013;-77
2022/09/03 07:26:14;;;;;;;2.65;2.20;;;;;;;;;;5075360;28;20039;-79
2022/09/03 07:28:41;;;;;;;2.90;2.30;;;;;;;;;;5075702;28;20028;-79
2022/09/03 07:31:10;;;;;;;2.22;1.80;;;;;;;;;;5067676;28;20028;-77
2022/09/03 07:33:37;;;;;;;4.45;2.13;;;;;;;;;;5072980;28;20021;-78
2022/09/03 07:36:05;;;;;;;4.22;2.60;;;;;;;;;;5080593;28;20091;-78
2022/09/03 07:38:31;;;;;;;3.28;2.05;;;;;;;;;;5072059;28;20456;-77
2022/09/03 07:40:58;;;;;;;2.47;2.00;;;;;;;;;;5076400;28;20174;-79
2022/09/03 07:43:26;;;;;;;2.22;2.00;;;;;;;;;;5075638;28;20040;-77
2022/09/03 07:45:54;;;;;;;3.47;2.20;;;;;;;;;;5075445;28;20512;-77
2022/09/03 07:48:20;;;;;;;2.28;2.00;;;;;;;;;;5064496;28;20021;-80
2022/09/03 07:50:47;;;;;;;2.70;2.50;;;;;;;;;;5070751;28;20036;-79
2022/09/03 07:53:15;;;;;;;3.67;2.30;;;;;;;;;;5073408;28;20243;-78
2022/09/03 07:55:43;;;;;;;2.30;2.10;;;;;;;;;;5083445;28;20028;-77
2022/09/03 07:58:11;;;;;;;2.10;1.90;;;;;;;;;;5072892;28;20112;-78
2022/09/03 08:00:37;;;;;;;3.33;2.75;;;;;;;;;;5075924;28;20050;-78
2022/09/03 08:03:07;;;;;;;2.47;2.00;;;;;;;;;;5075506;28;20365;-78
2022/09/03 08:05:34;;;;;;;2.45;2.03;;;;;;;;;;5075730;28;20117;-77
2022/09/03 08:08:00;;;;;;;3.83;2.45;;;;;;;;;;5075722;28;20016;-78
2022/09/03 08:10:29;;;;;;;3.53;1.98;;;;;;;;;;5072676;28;20500;-78
2022/09/03 08:12:55;;;;;;;2.47;2.00;;;;;;;;;;5074490;28;20096;-78
2022/09/03 08:15:21;;;;;;;2.42;2.05;;;;;;;;;;5076651;28;20591;-77
2022/09/03 08:17:48;;;;;;;2.80;2.33;;;;;;;;;;5075423;28;20028;-77
2022/09/03 08:20:14;;;;;;;3.25;2.35;;;;;;;;;;5076559;28;20167;-76
2022/09/03 08:22:41;;;;;;;3.35;2.28;;;;;;;;;;5069895;28;20021;-76
2022/09/03 08:25:07;;;;;;;2.70;2.15;;;;;;;;;;5074894;28;20048;-78
2022/09/03 08:27:34;;;;;;;3.05;2.10;;;;;;;;;;5072636;28;20017;-78
2022/09/03 08:30:00;;;;;;;3.38;2.10;;;;;;;;;;5067558;28;20032;-77
2022/09/03 08:32:26;;;;;;;3.67;2.45;;;;;;;;;;5073681;28;20048;-77
2022/09/03 08:34:52;;;;;;;3.33;2.47;;;;;;;;;;5067464;28;20036;-77
2022/09/03 08:37:18;;;;;;;3.47;2.13;;;;;;;;;;5079363;28;20063;-77
2022/09/03 08:39:45;;;;;;;2.97;2.20;;;;;;;;;;5070681;28;20028;-77
2022/09/03 08:42:20;;;;;;;4.25;2.40;;;;;;;;;;5073005;28;20028;-77
2022/09/03 08:44:57;;;;;;;4.20;2.20;;;;;;;;;;5074002;28;20028;-77
2022/09/03 08:47:40;;;;;;;2.70;2.05;;;;;;;;;;5073204;28;20090;-77
2022/09/03 08:50:25;;;;;;;3.13;2.30;;;;;;;;;;5074615;28;20528;-77
2022/09/03 08:52:52;;;;;;;6.00;2.78;;;;;;;;;;5069920;28;20098;-79
2022/09/03 08:55:33;;;;;;;3.53;2.30;;;;;;;;;;5075852;28;20036;-77
2022/09/03 08:58:05;;;;;;;3.95;2.40;;;;;;;;;;5076380;28;20527;-78
2022/09/03 09:01:00;;;;;;;2.47;2.17;;;;;;;;;;5076797;28;20055;-78
2022/09/03 09:03:44;;;;;;;5.18;2.50;;;;;;;;;;5060256;28;20066;-81
2022/09/03 09:06:33;;;;;;;2.40;2.20;;;;;;;;;;5076179;28;20051;-77
2022/09/03 09:09:06;;;;;;;3.10;2.47;;;;;;;;;;5070199;28;20275;-78
2022/09/03 09:11:47;;;;;;;3.70;2.08;;;;;;;;;;5070794;28;20040;-77
2022/09/03 09:14:28;;;;;;;2.75;2.10;;;;;;;;;;5075814;28;20040;-77
2022/09/03 09:17:07;;;;;;;2.95;2.20;;;;;;;;;;5072203;28;20058;-77
2022/09/03 09:19:34;;;;;;;2.35;1.90;;;;;;;;;;5074808;28;20025;-79
2022/09/03 09:22:08;;;;;;;2.35;2.00;;;;;;;;;;5065875;28;20028;-79
2022/09/03 09:24:41;;;;;;;5.88;2.38;;;;;;;;;;5073169;28;20036;-77
2022/09/03 09:27:08;;;;;;;1.83;1.65;;;;;;;;;;5088908;28;20067;-77
2022/09/03 09:29:38;;;;;;;2.22;1.88;;;;;;;;;;5072066;28;20024;-77
2022/09/03 09:32:07;;;;;;;4.03;2.55;;;;;;;;;;5071734;28;20067;-78
2022/09/03 09:34:37;;;;;;;2.28;1.80;;;;;;;;;;5071201;28;20039;-78
2022/09/03 09:37:05;;;;;;;2.08;1.85;;;;;;;;;;5075944;28;20029;-78
2022/09/03 09:39:31;;;;;;;3.65;2.10;;;;;;;;;;5074615;28;20448;-78
2022/09/03 09:42:11;;;;;;;3.92;2.20;;;;;;;;;;5070607;28;20055;-79
2022/09/03 09:44:38;;;;;;;3.97;2.20;;;;;;;;;;5074498;28;20032;-79
2022/09/03 09:47:12;;;;;;;3.38;2.10;;;;;;;;;;5072233;28;20064;-78
2022/09/03 09:49:52;;;;;;;4.50;2.10;;;;;;;;;;5069821;28;20024;-77
2022/09/03 09:52:18;;;;;;;2.53;1.80;;;;;;;;;;5069561;28;20591;-77
2022/09/03 09:54:45;;;;;;;3.45;2.10;;;;;;;;;;5067835;28;20036;-78
2022/09/03 09:57:18;;;;;;;3.63;1.90;;;;;;;;;;5090214;28;20024;-77
2022/09/03 09:59:49;;;;;;;2.05;1.90;;;;;;;;;;5072741;28;20044;-76
2022/09/03 10:02:20;;;;;;;4.13;2.40;;;;;;;;;;5078174;28;20021;-77
2022/09/03 10:04:46;;;;;;;3.22;2.00;;;;;;;;;;5073002;28;20025;-77
2022/09/03 10:07:18;;;;;;;2.85;2.15;;;;;;;;;;5067340;28;20033;-77
2022/09/03 10:09:45;;;;;;;4.07;2.30;;;;;;;;;;5072215;28;20016;-77
2022/09/03 10:12:30;;;;;;;3.85;1.90;;;;;;;;;;5070234;28;20029;-76
2022/09/03 10:14:56;;;;;;;3.22;1.77;;;;;;;;;;5075424;28;20036;-76
2022/09/03 10:17:28;;;;;;;2.58;1.90;;;;;;;;;;5073050;28;20028;-77
2022/09/03 10:22:55;;;;;;;2.10;1.90;;;;;;;;;;5070353;28;20044;-78
2022/09/03 10:25:23;;;;;;;2.67;1.70;;;;;;;;;;5070665;28;20032;-77
2022/09/03 10:27:53;;;;;;;2.25;1.75;;;;;;;;;;5072528;28;20115;-77
2022/09/03 10:30:19;;;;;;;2.28;1.73;;;;;;;;;;5067443;28;20028;-77
2022/09/03 10:33:04;;;;;;;1.92;1.73;;;;;;;;;;5070330;28;20409;-76
2022/09/03 10:35:32;;;;;;;2.15;1.67;;;;;;;;;;5072280;28;20084;-77
2022/09/03 10:37:58;;;;;;;2.22;2.00;;;;;;;;;;5075373;28;20690;-78
2022/09/03 10:40:30;;;;;;;2.35;1.83;;;;;;;;;;5076720;28;20050;-77
2022/09/03 10:43:16;;;;;;;3.63;2.08;;;;;;;;;;5077689;28;20028;-77
2022/09/03 10:45:48;;;;;;;2.42;1.60;;;;;;;;;;5066584;28;20095;-77
2022/09/03 10:48:20;;;;;;;2.10;1.40;;;;;;;;;;5077635;28;20095;-78
2022/09/03 10:50:58;;;;;;;1.73;1.50;;;;;;;;;;5076760;28;20020;-78
2022/09/03 10:53:28;;;;;;;2.08;1.65;;;;;;;;;;5093093;28;20129;-78
2022/09/03 10:55:57;;;;;;;2.08;1.70;;;;;;;;;;5075824;28;20089;-76
2022/09/03 10:58:42;;;;;;;1.85;1.48;;;;;;;;;;5071870;28;20104;-78
2022/09/03 11:01:12;;;;;;;2.92;1.73;;;;;;;;;;5069044;28;20036;-78
2022/09/03 11:03:56;;;;;;;1.70;1.60;;;;;;;;;;5075107;28;20032;-77
2022/09/03 11:06:28;;;;;;;1.83;1.40;;;;;;;;;;5091463;28;20355;-77
2022/09/03 11:08:59;;;;;;;2.13;1.70;;;;;;;;;;5072165;28;20393;-77
2022/09/03 11:11:37;;;;;;;1.80;1.70;;;;;;;;;;5079175;28;20063;-79
2022/09/03 11:14:03;;;;;;;3.03;1.95;;;;;;;;;;5076199;28;20033;-78
2022/09/03 11:16:35;;;;;;;2.20;1.77;;;;;;;;;;5075719;28;20361;-79
2022/09/03 11:19:01;;;;;;;2.53;2.05;;;;;;;;;;5086399;28;20084;-78
2022/09/03 11:21:29;;;;;;;4.13;2.22;;;;;;;;;;5075284;28;21140;-77
2022/09/03 11:24:05;;;;;;;5.15;2.60;;;;;;;;;;5070339;28;20020;-77
2022/09/03 11:26:34;;;;;;;4.50;2.80;;;;;;;;;;5085446;28;20107;-77
2022/09/03 11:29:15;;;;;;;5.43;3.38;;;;;;;;;;5073801;28;20035;-77
2022/09/03 11:31:58;;;;;;;4.55;3.05;;;;;;;;;;5071967;28;20086;-77
2022/09/03 11:34:25;;;;;;;4.85;2.50;;;;;;;;;;5074604;28;20508;-77
2022/09/03 11:36:51;;;;;;;3.78;2.72;;;;;;;;;;5074372;28;20013;-77
2022/09/03 11:39:20;;;;;;;15.20;8.25;;;;;;;;;;5073258;28;20033;-76
2022/09/03 11:42:05;;;;;;;5.45;3.63;;;;;;;;;;5068445;28;20032;-77
2022/09/03 11:44:36;;;;;;;8.43;6.32;;;;;;;;;;5053118;28;20057;-77
2022/09/03 11:47:12;;;;;;;13.48;7.65;;;;;;;;;;5070485;28;20059;-77
2022/09/03 11:49:43;;;;;;;11.48;6.50;;;;;;;;;;5071661;28;20025;-77
2022/09/03 11:52:11;;;;;;;5.93;3.50;;;;;;;;;;5070568;28;20119;-76
2022/09/03 11:54:44;;;;;;;5.40;3.45;;;;;;;;;;5072583;28;20024;-76
2022/09/03 11:57:23;;;;;;;8.23;6.80;;;;;;;;;;5072610;28;20029;-76
2022/09/03 11:59:49;;;;;;;3.90;2.45;;;;;;;;;;5071145;28;20028;-76
2022/09/03 12:02:35;;;;;;;7.95;5.00;;;;;;;;;;5072290;28;20063;-76
2022/09/03 12:05:34;;;;;;;3.92;2.60;;;;;;;;;;5071385;28;20032;-76
2022/09/03 12:08:19;;;;;;;6.10;4.30;;;;;;;;;;5034573;28;20523;-76
2022/09/03 12:10:55;;;;;;;5.68;3.30;;;;;;;;;;5072308;28;20028;-76
2022/09/03 12:13:24;;;;;;;7.50;3.95;;;;;;;;;;5074598;28;20036;-77
2022/09/03 12:16:07;;;;;;;7.03;4.75;;;;;;;;;;5070936;28;20060;-78
2022/09/03 12:18:34;;;;;;;14.95;6.75;;;;;;;;;;5073146;28;20016;-77
2022/09/03 12:21:04;;;;;;;6.53;3.65;;;;;;;;;;5070596;28;20090;-76
2022/09/03 12:23:33;;;;;;;11.40;6.43;;;;;;;;;;5072032;28;20028;-76
2022/09/03 12:26:13;;;;;;;10.32;5.90;;;;;;;;;;5067921;28;20037;-76
2022/09/03 12:28:40;;;;;;;8.07;4.45;;;;;;;;;;5070146;28;20360;-76
2022/09/03 12:31:19;;;;;;;4.32;2.58;;;;;;;;;;5066695;28;20037;-77
2022/09/03 12:33:46;;;;;;;3.55;2.38;;;;;;;;;;5070750;28;20029;-76
2022/09/03 12:36:13;;;;;;;5.47;3.58;;;;;;;;;;5064480;28;20024;-77
2022/09/03 12:38:39;;;;;;;4.13;2.70;;;;;;;;;;5065282;28;20062;-77
2022/09/03 12:41:18;;;;;;;3.08;2.50;;;;;;;;;;5071777;28;20040;-76
2022/09/03 12:43:50;;;;;;;3.78;2.67;;;;;;;;;;5069967;28;20497;-77
2022/09/03 12:46:16;;;;;;;5.18;4.32;;;;;;;;;;5068361;28;20025;-76
2022/09/03 12:49:04;;;;;;;6.00;3.65;;;;;;;;;;5060188;28;20040;-77
2022/09/03 12:51:41;;;;;;;4.13;2.40;;;;;;;;;;5064348;28;20077;-77
2022/09/03 12:54:13;;;;;;;8.32;3.55;;;;;;;;;;5068454;28;20067;-78
2022/09/03 12:56:40;;;;;;;6.40;4.13;;;;;;;;;;5067192;28;20107;-77
2022/09/03 12:59:11;;;;;;;8.10;4.28;;;;;;;;;;5075234;28;20405;-82
2022/09/03 13:01:52;;;;;;;6.03;3.30;;;;;;;;;;5071945;28;20028;-78
2022/09/03 13:04:25;;;;;;;3.60;2.85;;;;;;;;;;5072501;28;20032;-78
2022/09/03 13:07:06;;;;;;;4.88;3.45;;;;;;;;;;5075880;28;20035;-77
2022/09/03 13:09:34;;;;;;;7.00;3.42;;;;;;;;;;5061066;28;20025;-76
2022/09/03 13:12:04;;;;;;;5.03;2.83;;;;;;;;;;5074230;28;20029;-77
2022/09/03 13:14:41;;;;;;;4.28;2.25;;;;;;;;;;5072063;28;20131;-77
2022/09/03 13:17:12;;;;;;;4.32;2.72;;;;;;;;;;5071052;28;20032;-84
2022/09/03 13:19:41;;;;;;;3.65;2.70;;;;;;;;;;5076200;28;20033;-76
2022/09/03 13:22:26;;;;;;;4.22;3.33;;;;;;;;;;5066584;28;20045;-76
2022/09/03 13:25:07;;;;;;;3.88;2.50;;;;;;;;;;5083771;28;20025;-79
2022/09/03 13:27:38;;;;;;;3.85;2.20;;;;;;;;;;5062038;28;20036;-77
2022/09/03 13:30:22;;;;;;;4.85;2.47;;;;;;;;;;5071802;28;20039;-77
2022/09/03 13:33:00;;;;;;;5.00;2.85;;;;;;;;;;5074535;28;20848;-77
2022/09/03 13:35:32;;;;;;;5.13;2.67;;;;;;;;;;5073336;28;20036;-77
2022/09/03 13:38:04;;;;;;;3.83;2.58;;;;;;;;;;5086761;28;20140;-75
2022/09/03 13:40:49;;;;;;;3.35;2.50;;;;;;;;;;5071049;28;20021;-79
2022/09/03 13:43:15;;;;;;;3.20;2.63;;;;;;;;;;5070150;28;20029;-76
2022/09/03 13:45:44;;;;;;;4.13;2.75;;;;;;;;;;5073920;28;20024;-78
2022/09/03 13:51:17;;;;;;;4.05;2.75;;;;;;;;;;5075203;28;20050;-78
2022/09/03 13:53:47;;;;;;;4.10;2.80;;;;;;;;;;5063984;28;20047;-79
2022/09/03 13:56:34;;;;;;;5.53;3.10;;;;;;;;;;5088072;28;20031;-79
2022/09/03 13:59:07;;;;;;;4.55;3.58;;;;;;;;;;5074451;28;20021;-76
2022/09/03 14:01:39;;;;;;;3.83;2.72;;;;;;;;;;5082330;28;20520;-77
2022/09/03 14:04:10;;;;;;;5.10;3.00;;;;;;;;;;5072473;28;20024;-78
2022/09/03 14:06:46;;;;;;;4.03;3.55;;;;;;;;;;5066685;28;20089;-78
2022/09/03 14:09:23;;;;;;;3.80;3.05;;;;;;;;;;5070066;28;20070;-77
2022/09/03 14:12:01;;;;;;;3.50;3.00;;;;;;;;;;5078061;28;20047;-78
2022/09/03 14:14:45;;;;;;;5.18;3.38;;;;;;;;;;5077471;28;20032;-80
2022/09/03 14:17:18;;;;;;;4.10;2.85;;;;;;;;;;5074011;28;20017;-79
2022/09/03 14:19:48;;;;;;;4.47;2.63;;;;;;;;;;5075945;28;20103;-77
2022/09/03 14:22:18;;;;;;;7.43;3.42;;;;;;;;;;5073251;28;20763;-76
2022/09/03 14:25:02;;;;;;;4.70;2.90;;;;;;;;;;5077420;28;20031;-77
2022/09/03 14:27:29;;;;;;;5.72;2.97;;;;;;;;;;5075194;28;20036;-75
2022/09/03 14:30:00;;;;;;;3.90;3.30;;;;;;;;;;5076373;28;20033;-78
2022/09/03 14:32:28;;;;;;;7.80;4.32;;;;;;;;;;5071856;28;20043;-77
2022/09/03 14:35:10;;;;;;;5.50;3.70;;;;;;;;;;5077761;28;20373;-78
2022/09/03 14:37:51;;;;;;;5.10;3.80;;;;;;;;;;5076024;28;20019;-77
2022/09/03 14:40:18;;;;;;;6.38;3.22;;;;;;;;;;5085649;28;20069;-77
2022/09/03 14:42:53;;;;;;;5.22;3.35;;;;;;;;;;5076548;28;20024;-77
2022/09/03 14:45:19;;;;;;;;;;;;;;;;;;5075993;28;20111;-77
2022/09/03 14:47:52;;;;;;;5.28;3.25;;;;;;;;;;5073282;28;19994;-75
2022/09/03 14:50:18;;;;;;;4.53;3.10;;;;;;;;;;5077181;28;20489;-77
2022/09/03 14:52:45;;;;;;;6.80;3.47;;;;;;;;;;5076164;28;20048;-77
2022/09/03 14:55:11;;;;;;;3.70;2.60;;;;;;;;;;5077703;28;20020;-77
2022/09/03 14:57:40;;;;;;;4.32;2.47;;;;;;;;;;5072543;28;20043;-78
2022/09/03 15:00:10;;;;;;;2.15;1.88;;;;;;;;;;5077495;28;20068;-77
2022/09/03 15:02:54;;;;;;;3.13;2.70;;;;;;;;;;5076605;28;20024;-76
2022/09/03 15:05:21;;;;;;;2.25;1.90;;;;;;;;;;5085907;28;20088;-76
2022/09/03 15:07:55;;;;;;;1.77;1.67;;;;;;;;;;5062048;28;20054;-78
2022/09/03 15:10:40;;;;;;;2.42;1.90;;;;;;;;;;5076352;28;20060;-77